Castro Valley, California
Current Conditions -  °F | °C
As of 3:54 AM on Saturday 25 Oct 2014 (Local Time) from KHWD Reporting Station
Overcast Overcast  
Wind Chill: 63°   Ceiling: 5500
Heat Index: 63°   Visibility: 10mi
Dew Point: 56°   Wind: 13mph
Humidity: 78%   Direction: 180°S
Pressure: 29.9"   Gusts: 18mph
Location:  37.69°N, 122.08°W
Report Text: KHWD 251054Z AUTO 18011G16KT 10SM SCT042 OVC055 17/13 A2990 RMK AO2 SLP134 T01720133
Loading
Personal Weather Stations






























Interactive Weather Map
Tropical Storm Tracking
New forecast layout! Learn more

10-Day Weather Forecast

Advertisements
Track Severe Weather on mobile